Pickwick Observed Data For Previous 48 Hours

Caption
Day and Hour Reservoir Elevation (behind dam)* Tailwater Elevation (below dam)* Average Hourly Discharge*
6/21/2017 1 AM CDT 413.53 364.50 62,903
6/21/2017 2 AM CDT 413.50 364.50 62,919
6/21/2017 3 AM CDT 413.47 364.53 63,265
6/21/2017 4 AM CDT 413.48 364.54 62,973
6/21/2017 5 AM CDT 413.43 364.53 62,905
6/21/2017 6 AM CDT 413.41 364.54 63,082
6/21/2017 7 AM CDT 413.41 364.55 62,969
6/21/2017 8 AM CDT 413.41 364.54 62,952
6/21/2017 9 AM CDT 413.38 364.62 62,916
6/21/2017 10 AM CDT 413.35 364.59 63,158
6/21/2017 11 AM CDT 413.42 364.57 63,132
6/21/2017 12 PM CDT 413.42 364.56 62,913
6/21/2017 1 PM CDT 413.34 364.65 63,141
6/21/2017 2 PM CDT 413.37 364.59 63,101
6/21/2017 3 PM CDT 413.34 364.58 62,807
6/21/2017 4 PM CDT 413.36 364.63 62,709
6/21/2017 5 PM CDT 413.30 364.57 62,780
6/21/2017 6 PM CDT 413.27 364.55 62,904
6/21/2017 7 PM CDT 413.20 364.63 62,920
6/21/2017 8 PM CDT 413.17 364.58 62,937
6/21/2017 9 PM CDT 413.21 364.57 62,953
6/21/2017 10 PM CDT 413.16 364.62 62,970
6/21/2017 11 PM CDT 413.07 364.59 62,986
6/22/2017 12 AM CDT 413.12 364.58 63,003
6/22/2017 1 AM CDT 413.06 364.66 63,019
6/22/2017 2 AM CDT 413.11 364.70 63,035
6/22/2017 3 AM CDT 413.16 364.64 63,052
6/22/2017 4 AM CDT 413.17 364.62 63,068
6/22/2017 5 AM CDT 413.17 364.62 63,085
6/22/2017 6 AM CDT 413.22 364.62 63,101
6/22/2017 7 AM CDT 413.16 364.66 71,593
6/22/2017 8 AM CDT 413.18 365.23 77,057
6/22/2017 9 AM CDT 413.19 365.64 78,278
6/22/2017 10 AM CDT 413.17 365.89 77,911
6/22/2017 11 AM CDT 413.13 366.04 76,400
6/22/2017 12 PM CDT 413.09 366.09 76,755
6/22/2017 1 PM CDT 413.22 365.59 65,674
6/22/2017 2 PM CDT 412.97 365.44 68,330
6/22/2017 3 PM CDT 413.13 365.90 77,722
6/22/2017 4 PM CDT 413.19 366.04 77,095
6/22/2017 5 PM CDT 413.11 366.19 77,840
6/22/2017 6 PM CDT 413.11 366.27 77,526
6/22/2017 7 PM CDT 413.11 366.25 77,782
6/22/2017 8 PM CDT 413.11 366.28 77,796
6/22/2017 9 PM CDT 413.13 366.30 77,488
6/22/2017 10 PM CDT 413.15 366.29 77,524
6/22/2017 11 PM CDT 413.14 366.35 77,577
6/23/2017 12 AM CDT 413.19 366.22 74,088

Elevations are in feet above sea level. Discharges are in cubic feet per second and are reported at the end of the hour.